Time;durP1;ratioP1;P1;durP2;ratioP2;P2;SDS_P1;SDS_P2;PMS_P1;PMS_P2;Temp;Humidity;BMP_temperature;BMP_pressure;BME280_temperature;BME280_humidity;BME280_pressure;Samples;Min_cycle;Max_cycle;Signal;HPM_P1;HPM_P2
2024/01/19 00:02:11;;;;;;;;;;;0.50;99.90;;;;;;5049134;28;19970;-71
2024/01/19 00:04:36;;;;;;;;;;;0.50;99.90;;;;;;5048185;28;19928;-71
2024/01/19 00:07:02;;;;;;;;;;;0.50;99.90;;;;;;5063168;28;19920;-71
2024/01/19 00:09:28;;;;;;;;;;;0.50;99.90;;;;;;5049493;28;19924;-72
2024/01/19 00:11:53;;;;;;;;;;;0.50;99.90;;;;;;5046188;28;19924;-71
2024/01/19 00:14:19;;;;;;;;;;;0.50;99.90;;;;;;5068261;28;19946;-71
2024/01/19 00:16:44;;;;;;;;;;;1.00;99.90;;;;;;5045767;28;19928;-73
2024/01/19 00:19:10;;;;;;;;;;;1.90;99.90;;;;;;5048481;28;19977;-71
2024/01/19 00:21:44;;;;;;;;;;;0.50;99.90;;;;;;5049328;28;19954;-71
2024/01/19 00:24:10;;;;;;;;;;;0.50;99.90;;;;;;5044091;28;19974;-71
2024/01/19 00:26:35;;;;;;;;;;;2.40;99.90;;;;;;5048158;28;20272;-71
2024/01/19 00:29:01;;;;;;;;;;;0.60;99.90;;;;;;5049528;28;19927;-71
2024/01/19 00:31:27;;;;;;;;;;;0.60;99.90;;;;;;5050131;28;20015;-72
2024/01/19 00:33:52;;;;;;;;;;;0.70;99.90;;;;;;5067451;28;19920;-71
2024/01/19 00:36:18;;;;;;;;;;;0.60;99.90;;;;;;5067054;28;20026;-72
2024/01/19 00:38:43;;;;;;;;;;;0.60;99.90;;;;;;5048862;28;19921;-71
2024/01/19 00:41:09;;;;;;;;;;;1.50;99.90;;;;;;5065603;28;19932;-71
2024/01/19 00:43:34;;;;;;;;;;;0.70;99.90;;;;;;5065044;28;19917;-72
2024/01/19 00:46:00;;;;;;;;;;;0.80;99.90;;;;;;5064468;28;19928;-71
2024/01/19 00:48:25;;;;;;;;;;;0.80;99.90;;;;;;5062355;28;20010;-71
2024/01/19 00:50:51;;;;;;;;;;;0.80;99.90;;;;;;5063656;28;19916;-72
2024/01/19 00:53:16;;;;;;;;;;;0.90;99.90;;;;;;5064005;28;19974;-71
2024/01/19 00:55:42;;;;;;;;;;;0.90;99.90;;;;;;5064533;28;19924;-73
2024/01/19 00:58:09;;;;;;;;;;;0.90;99.90;;;;;;5048306;28;19928;-72
2024/01/19 01:00:35;;;;;;;;;;;0.90;99.90;;;;;;5064057;28;20372;-71
2024/01/19 01:03:00;;;;;;;;;;;0.90;99.90;;;;;;5046331;28;20030;-71
2024/01/19 01:05:26;;;;;;;;;;;0.90;99.90;;;;;;5043664;28;20364;-71
2024/01/19 01:07:51;;;;;;;;;;;0.80;99.90;;;;;;5063719;28;19920;-71
2024/01/19 01:10:17;;;;;;;;;;;0.90;99.90;;;;;;5049010;28;19921;-71
2024/01/19 01:12:42;;;;;;;;;;;0.90;99.90;;;;;;5065708;28;20268;-71
2024/01/19 01:15:08;;;;;;;;;;;0.80;99.90;;;;;;5059919;28;19925;-72
2024/01/19 01:17:34;;;;;;;;;;;0.80;99.90;;;;;;5042891;28;19965;-72
2024/01/19 01:19:59;;;;;;;;;;;0.80;99.90;;;;;;5049639;28;20281;-71
2024/01/19 01:22:26;;;;;;;;;;;0.80;99.90;;;;;;5046889;28;19970;-71
2024/01/19 01:24:52;;;;;;;;;;;0.80;99.90;;;;;;5059189;28;19943;-71
2024/01/19 01:27:17;;;;;;;;;;;0.80;99.90;;;;;;5036986;28;19924;-71
2024/01/19 01:29:43;;;;;;;;;;;0.80;99.90;;;;;;5050057;28;19923;-71
2024/01/19 01:32:08;;;;;;;;;;;0.70;99.90;;;;;;5066798;28;19969;-71
2024/01/19 01:34:34;;;;;;;;;;;0.70;99.90;;;;;;5060841;28;20009;-71
2024/01/19 01:37:00;;;;;;;;;;;0.70;99.90;;;;;;5048869;28;19924;-71
2024/01/19 01:39:25;;;;;;;;;;;0.80;99.90;;;;;;5067930;28;19921;-71
2024/01/19 01:41:51;;;;;;;;;;;0.70;99.90;;;;;;5050919;28;19926;-71
2024/01/19 01:44:17;;;;;;;;;;;0.60;99.90;;;;;;5053478;28;19920;-71
2024/01/19 01:46:42;;;;;;;;;;;1.00;99.90;;;;;;5070693;28;19920;-71
2024/01/19 01:49:08;;;;;;;;;;;0.60;99.90;;;;;;5052534;28;20304;-71
2024/01/19 01:51:33;;;;;;;;;;;1.70;99.90;;;;;;5064516;28;20282;-71
2024/01/19 01:53:59;;;;;;;;;;;0.50;99.90;;;;;;5069423;28;20282;-71
2024/01/19 01:56:25;;;;;;;;;;;0.50;99.90;;;;;;5052959;28;19966;-71
2024/01/19 01:58:51;;;;;;;;;;;0.50;99.90;;;;;;5071219;28;20346;-71
2024/01/19 02:01:16;;;;;;;;;;;0.50;99.90;;;;;;5070051;28;20020;-72
2024/01/19 02:03:43;;;;;;;;;;;0.40;99.90;;;;;;5050458;28;19920;-71
2024/01/19 02:06:08;;;;;;;;;;;0.40;99.90;;;;;;5050628;28;19925;-71
2024/01/19 02:08:34;;;;;;;;;;;0.40;99.90;;;;;;5065498;28;19916;-71
2024/01/19 02:10:59;;;;;;;;;;;0.40;99.90;;;;;;5070101;28;20574;-72
2024/01/19 02:13:25;;;;;;;;;;;0.40;99.90;;;;;;5051485;28;19924;-71
2024/01/19 02:15:51;;;;;;;;;;;0.50;99.90;;;;;;5068941;28;19920;-72
2024/01/19 02:18:17;;;;;;;;;;;0.50;99.90;;;;;;5053775;28;19932;-71
2024/01/19 02:20:42;;;;;;;;;;;0.50;99.90;;;;;;5045230;28;19920;-72
2024/01/19 02:23:12;;;;;;;;;;;0.60;99.90;;;;;;5050286;28;19930;-71
2024/01/19 02:25:37;;;;;;;;;;;1.10;99.90;;;;;;5049114;28;19924;-71
2024/01/19 02:28:03;;;;;;;;;;;0.60;99.90;;;;;;5069239;28;19925;-71
2024/01/19 02:30:29;;;;;;;;;;;0.60;99.90;;;;;;5069963;28;19927;-71
2024/01/19 02:32:54;;;;;;;;;;;0.60;99.90;;;;;;5069485;28;19920;-71
2024/01/19 02:35:20;;;;;;;;;;;0.60;99.90;;;;;;5071177;28;20559;-71
2024/01/19 02:37:45;;;;;;;;;;;0.60;99.90;;;;;;5050152;28;20007;-71
2024/01/19 02:40:11;;;;;;;;;;;0.60;99.90;;;;;;5070464;28;19977;-71
2024/01/19 02:42:37;;;;;;;;;;;0.60;99.90;;;;;;5069965;28;20031;-71
2024/01/19 02:45:02;;;;;;;;;;;0.60;99.90;;;;;;5065642;28;20055;-72
2024/01/19 02:47:28;;;;;;;;;;;0.50;99.90;;;;;;5045139;28;20364;-71
2024/01/19 02:49:53;;;;;;;;;;;0.50;99.90;;;;;;5045736;28;19951;-71
2024/01/19 02:52:19;;;;;;;;;;;0.50;99.90;;;;;;5046986;28;19916;-71
2024/01/19 02:54:44;;;;;;;;;;;0.50;99.90;;;;;;5059726;28;19924;-71
2024/01/19 02:57:10;;;;;;;;;;;0.40;99.90;;;;;;5069572;28;20023;-71
2024/01/19 02:59:35;;;;;;;;;;;0.40;99.90;;;;;;5066256;28;19920;-71
2024/01/19 03:02:01;;;;;;;;;;;0.30;99.90;;;;;;5050975;28;20329;-71
2024/01/19 03:04:27;;;;;;;;;;;0.30;99.90;;;;;;5050137;28;20372;-71
2024/01/19 03:06:53;;;;;;;;;;;0.20;99.90;;;;;;5052212;28;19924;-71
2024/01/19 03:09:19;;;;;;;;;;;0.20;99.90;;;;;;5071489;28;20445;-71
2024/01/19 03:11:44;;;;;;;;;;;0.20;99.90;;;;;;5065921;28;19920;-71
2024/01/19 03:14:10;;;;;;;;;;;0.60;99.90;;;;;;5047548;28;19924;-71
2024/01/19 03:16:40;;;;;;;;;;;0.20;99.90;;;;;;5068435;28;19932;-70
2024/01/19 03:19:05;;;;;;;;;;;0.10;99.90;;;;;;5068828;28;19927;-71
2024/01/19 03:21:31;;;;;;;;;;;0.20;99.90;;;;;;5063121;28;19924;-70
2024/01/19 03:23:56;;;;;;;;;;;0.10;99.90;;;;;;5052129;28;20380;-70
2024/01/19 03:26:22;;;;;;;;;;;0.10;99.90;;;;;;5065826;28;19928;-70
2024/01/19 03:28:47;;;;;;;;;;;0.00;99.90;;;;;;5044253;28;19928;-70
2024/01/19 03:31:13;;;;;;;;;;;0.00;99.90;;;;;;5066393;28;19943;-68
2024/01/19 03:33:39;;;;;;;;;;;0.00;99.90;;;;;;5066567;28;19927;-70
2024/01/19 03:36:04;;;;;;;;;;;1.30;99.90;;;;;;5070376;28;20427;-70
2024/01/19 03:38:31;;;;;;;;;;;0.00;99.90;;;;;;5036047;28;19925;-77
2024/01/19 03:40:56;;;;;;;;;;;0.00;99.90;;;;;;5049719;28;19921;-70
2024/01/19 03:43:22;;;;;;;;;;;0.10;99.90;;;;;;5068506;28;19928;-70
2024/01/19 03:45:47;;;;;;;;;;;1.70;99.90;;;;;;5049283;28;20278;-70
2024/01/19 03:48:13;;;;;;;;;;;0.10;99.90;;;;;;5066921;28;20401;-70
2024/01/19 03:50:38;;;;;;;;;;;0.10;99.90;;;;;;5067771;28;20452;-70
2024/01/19 03:53:04;;;;;;;;;;;0.20;99.90;;;;;;5048863;28;20464;-69
2024/01/19 03:55:29;;;;;;;;;;;0.10;99.90;;;;;;5070081;28;20402;-70
2024/01/19 03:57:55;;;;;;;;;;;0.10;99.90;;;;;;5065230;28;19974;-70
2024/01/19 04:00:20;;;;;;;;;;;0.20;99.90;;;;;;5068367;28;19931;-70
2024/01/19 04:02:46;;;;;;;;;;;0.10;99.90;;;;;;5048384;28;19926;-70
2024/01/19 04:05:11;;;;;;;;;;;0.10;99.90;;;;;;5064842;28;19920;-70
2024/01/19 04:07:37;;;;;;;;;;;0.10;99.90;;;;;;5046197;28;19924;-70
2024/01/19 04:10:03;;;;;;;;;;;0.10;99.90;;;;;;5048918;28;19924;-70
2024/01/19 04:12:29;;;;;;;;;;;0.10;99.90;;;;;;5047799;28;19928;-69
2024/01/19 04:14:55;;;;;;;;;;;0.10;99.90;;;;;;5062974;28;20271;-70
2024/01/19 04:17:20;;;;;;;;;;;0.10;99.90;;;;;;5055987;28;20383;-70
2024/01/19 04:19:46;;;;;;;;;;;0.10;99.90;;;;;;5068466;28;19927;-70
2024/01/19 04:22:12;;;;;;;;;;;0.10;99.90;;;;;;5062007;28;19921;-70
2024/01/19 04:24:37;;;;;;;;;;;0.10;99.90;;;;;;5048714;28;19973;-70
2024/01/19 04:27:03;;;;;;;;;;;0.90;99.90;;;;;;5046733;28;19928;-70
2024/01/19 04:29:28;;;;;;;;;;;0.10;99.90;;;;;;5057946;28;19967;-70
2024/01/19 04:31:55;;;;;;;;;;;0.20;99.90;;;;;;5047432;28;20011;-70
2024/01/19 04:34:21;;;;;;;;;;;0.00;99.90;;;;;;5049656;28;20145;-70
2024/01/19 04:36:46;;;;;;;;;;;0.10;99.90;;;;;;5048678;28;19973;-70
2024/01/19 04:39:12;;;;;;;;;;;-1.00;99.90;;;;;;5066924;28;20312;-71
2024/01/19 04:41:38;;;;;;;;;;;0.00;99.90;;;;;;5042411;28;20335;-70
2024/01/19 04:44:03;;;;;;;;;;;0.00;99.90;;;;;;5044115;28;20168;-71
2024/01/19 04:46:29;;;;;;;;;;;0.00;99.90;;;;;;5041205;28;20020;-70
2024/01/19 04:48:54;;;;;;;;;;;0.00;99.90;;;;;;5049525;28;20383;-71
2024/01/19 04:51:20;;;;;;;;;;;1.30;99.90;;;;;;5052061;28;20283;-71
2024/01/19 04:53:46;;;;;;;;;;;0.00;99.90;;;;;;5065374;28;19920;-71
2024/01/19 04:56:11;;;;;;;;;;;-0.10;99.90;;;;;;5067443;28;19931;-71
2024/01/19 04:58:37;;;;;;;;;;;-0.10;99.90;;;;;;5069699;28;19931;-70
2024/01/19 05:01:03;;;;;;;;;;;0.00;99.90;;;;;;5048403;28;19925;-73
2024/01/19 05:03:32;;;;;;;;;;;-0.10;99.90;;;;;;5064174;28;20280;-72
2024/01/19 05:05:57;;;;;;;;;;;-0.10;99.90;;;;;;5066163;28;19928;-71
2024/01/19 05:08:23;;;;;;;;;;;-0.10;99.90;;;;;;5068868;28;19986;-71
2024/01/19 05:10:48;;;;;;;;;;;-0.10;99.90;;;;;;5049490;28;20552;-72
2024/01/19 05:13:14;;;;;;;;;;;-0.10;99.90;;;;;;5048640;28;19920;-72
2024/01/19 05:15:41;;;;;;;;;;;0.90;99.90;;;;;;5069047;28;19930;-73
2024/01/19 05:18:07;;;;;;;;;;;-0.10;99.90;;;;;;5050842;28;19940;-72
2024/01/19 05:20:32;;;;;;;;;;;-0.10;99.90;;;;;;5071518;28;19927;-70
2024/01/19 05:22:58;;;;;;;;;;;-0.10;99.90;;;;;;5043899;28;20368;-71
2024/01/19 05:25:23;;;;;;;;;;;0.00;99.90;;;;;;5062315;28;19921;-71
2024/01/19 05:27:53;;;;;;;;;;;0.00;99.90;;;;;;5065297;28;20274;-72
2024/01/19 05:30:19;;;;;;;;;;;0.00;99.90;;;;;;5047828;28;19921;-71
2024/01/19 05:32:45;;;;;;;;;;;0.00;99.90;;;;;;5044436;28;19927;-71
2024/01/19 05:35:10;;;;;;;;;;;0.00;99.90;;;;;;5064623;28;19999;-70
2024/01/19 05:37:37;;;;;;;;;;;0.10;99.90;;;;;;5052350;28;20419;-69
2024/01/19 05:40:03;;;;;;;;;;;0.00;99.90;;;;;;5071001;28;20364;-70
2024/01/19 05:42:29;;;;;;;;;;;0.00;99.90;;;;;;5070076;28;19968;-70
2024/01/19 05:44:54;;;;;;;;;;;0.00;99.90;;;;;;5072011;28;19972;-71
2024/01/19 05:47:20;;;;;;;;;;;-0.10;99.90;;;;;;5047510;28;19929;-71
2024/01/19 05:49:45;;;;;;;;;;;0.10;99.90;;;;;;5072528;28;19959;-69
2024/01/19 05:52:11;;;;;;;;;;;-0.20;99.90;;;;;;5053949;28;19964;-72
2024/01/19 05:54:36;;;;;;;;;;;-0.20;99.90;;;;;;5072526;28;19920;-71
2024/01/19 05:57:02;;;;;;;;;;;-0.20;99.90;;;;;;5050600;28;19924;-70
2024/01/19 05:59:28;;;;;;;;;;;-0.30;99.90;;;;;;5069967;28;19920;-69
2024/01/19 06:01:54;;;;;;;;;;;-0.30;99.90;;;;;;5037466;28;19928;-70
2024/01/19 06:04:19;;;;;;;;;;;-0.30;99.90;;;;;;5040377;28;20533;-69
2024/01/19 06:06:45;;;;;;;;;;;-0.30;99.90;;;;;;5052149;28;20019;-72
2024/01/19 06:09:10;;;;;;;;;;;-0.30;99.90;;;;;;5069442;28;20287;-69
2024/01/19 06:11:36;;;;;;;;;;;-0.30;99.90;;;;;;5064997;28;19935;-70
2024/01/19 06:14:02;;;;;;;;;;;-0.30;99.90;;;;;;5053395;28;20014;-71
2024/01/19 06:16:28;;;;;;;;;;;-0.30;99.90;;;;;;5065625;28;19988;-70
2024/01/19 06:18:54;;;;;;;;;;;-0.30;99.90;;;;;;5071053;28;19921;-70
2024/01/19 06:21:20;;;;;;;;;;;-0.20;99.90;;;;;;5064838;28;19924;-71
2024/01/19 06:23:45;;;;;;;;;;;0.00;99.90;;;;;;5070665;28;19921;-70
2024/01/19 06:26:11;;;;;;;;;;;-0.20;99.90;;;;;;5053190;28;19931;-71
2024/01/19 06:28:37;;;;;;;;;;;-0.20;99.90;;;;;;5068687;28;19926;-69
2024/01/19 06:31:03;;;;;;;;;;;-0.30;99.90;;;;;;5046519;28;19977;-70
2024/01/19 06:33:29;;;;;;;;;;;-0.30;99.90;;;;;;5040470;28;20384;-72
2024/01/19 06:35:55;;;;;;;;;;;-0.30;99.90;;;;;;5051055;28;20082;-70
2024/01/19 06:38:20;;;;;;;;;;;-0.30;99.90;;;;;;5058794;28;19944;-71
2024/01/19 06:40:46;;;;;;;;;;;-0.40;99.90;;;;;;5045881;28;19920;-70
2024/01/19 06:43:12;;;;;;;;;;;-0.40;99.90;;;;;;5048783;28;19921;-71
2024/01/19 06:45:37;;;;;;;;;;;-0.40;99.90;;;;;;5071141;28;19927;-69
2024/01/19 06:48:03;;;;;;;;;;;-0.40;99.90;;;;;;5059883;28;19924;-71
2024/01/19 06:50:29;;;;;;;;;;;-0.50;99.90;;;;;;5052245;28;19939;-71
2024/01/19 06:52:54;;;;;;;;;;;-0.40;99.90;;;;;;5062670;28;20338;-72
2024/01/19 06:55:20;;;;;;;;;;;-0.40;99.90;;;;;;5051721;28;20381;-71
2024/01/19 06:57:45;;;;;;;;;;;-0.50;99.90;;;;;;5070511;28;19920;-70
2024/01/19 07:00:11;;;;;;;;;;;-0.50;99.90;;;;;;5066284;28;19928;-70
2024/01/19 07:02:36;;;;;;;;;;;-0.50;99.90;;;;;;5049832;28;20168;-69
2024/01/19 07:05:02;;;;;;;;;;;-0.50;99.90;;;;;;5070149;28;19920;-70
2024/01/19 07:07:27;;;;;;;;;;;-0.50;99.90;;;;;;5061831;28;19927;-69
2024/01/19 07:09:53;;;;;;;;;;;-0.50;99.90;;;;;;5050414;28;19974;-70
2024/01/19 07:12:20;;;;;;;;;;;-0.50;99.90;;;;;;5070340;28;19975;-69
2024/01/19 07:14:45;;;;;;;;;;;-0.50;99.90;;;;;;5044866;28;19967;-69
2024/01/19 07:17:11;;;;;;;;;;;-0.50;99.90;;;;;;5034075;28;19967;-70
2024/01/19 07:19:37;;;;;;;;;;;-0.50;99.90;;;;;;5068364;28;19921;-69
2024/01/19 07:22:03;;;;;;;;;;;-0.30;99.90;;;;;;5047288;28;19923;-69
2024/01/19 07:24:32;;;;;;;;;;;-0.50;99.90;;;;;;5042728;28;20008;-69
2024/01/19 07:26:58;;;;;;;;;;;-0.40;99.90;;;;;;5047424;28;19928;-69
2024/01/19 07:29:23;;;;;;;;;;;-0.40;99.90;;;;;;5066394;28;19931;-69
2024/01/19 07:31:49;;;;;;;;;;;-0.40;99.90;;;;;;5060232;28;19920;-69
2024/01/19 07:34:14;;;;;;;;;;;-0.40;99.90;;;;;;5068430;28;19916;-69
2024/01/19 07:36:40;;;;;;;;;;;-0.30;99.90;;;;;;5066318;28;19925;-69
2024/01/19 07:39:05;;;;;;;;;;;-0.30;99.90;;;;;;5059551;28;19940;-69
2024/01/19 07:41:31;;;;;;;;;;;-0.20;99.90;;;;;;5061764;28;20348;-69
2024/01/19 07:43:56;;;;;;;;;;;-0.20;99.90;;;;;;5060158;28;19928;-70
2024/01/19 07:46:22;;;;;;;;;;;-0.20;99.90;;;;;;5058987;28;20066;-69
2024/01/19 07:48:47;;;;;;;;;;;-0.10;99.90;;;;;;5059936;28;19952;-69
2024/01/19 07:51:13;;;;;;;;;;;-0.10;99.90;;;;;;5042556;28;20100;-69
2024/01/19 07:53:38;;;;;;;;;;;-0.10;99.90;;;;;;5060248;28;19935;-68
2024/01/19 07:56:04;;;;;;;;;;;-0.10;99.90;;;;;;5041402;28;19974;-68
2024/01/19 07:58:29;;;;;;;;;;;-0.10;99.90;;;;;;5065607;28;19935;-68
2024/01/19 08:00:55;;;;;;;;;;;-0.10;99.90;;;;;;5062001;28;19924;-68
2024/01/19 08:03:21;;;;;;;;;;;0.20;99.90;;;;;;5044139;28;20284;-68
2024/01/19 08:05:46;;;;;;;;;;;0.00;99.90;;;;;;5044414;28;20054;-68
2024/01/19 08:08:12;;;;;;;;;;;0.10;99.90;;;;;;5062234;28;20017;-69
2024/01/19 08:10:37;;;;;;;;;;;0.10;99.90;;;;;;5047855;28;19931;-68
2024/01/19 08:13:03;;;;;;;;;;;0.10;99.90;;;;;;5055021;28;19924;-68
2024/01/19 08:15:29;;;;;;;;;;;0.10;99.90;;;;;;5035262;28;20043;-68
2024/01/19 08:17:55;;;;;;;;;;;0.10;99.90;;;;;;5058578;28;20280;-68
2024/01/19 08:20:21;;;;;;;;;;;0.10;99.90;;;;;;5044595;28;20814;-68
2024/01/19 08:22:47;;;;;;;;;;;0.10;99.90;;;;;;5044969;28;19931;-69
2024/01/19 08:25:13;;;;;;;;;;;0.10;99.90;;;;;;5061216;28;20515;-68
2024/01/19 08:27:42;;;;;;;;;;;0.10;99.90;;;;;;5040308;28;19978;-69
2024/01/19 08:30:08;;;;;;;;;;;0.10;99.90;;;;;;5040416;28;19920;-68
2024/01/19 08:32:35;;;;;;;;;;;0.10;99.90;;;;;;5035667;28;19920;-69
2024/01/19 08:35:00;;;;;;;;;;;0.10;99.90;;;;;;5049856;28;19963;-69
2024/01/19 08:37:26;;;;;;;;;;;0.10;99.90;;;;;;5037144;28;20358;-69
2024/01/19 08:39:51;;;;;;;;;;;0.20;99.90;;;;;;5037890;28;19927;-69
2024/01/19 08:42:17;;;;;;;;;;;0.20;99.90;;;;;;5035799;28;19928;-69
2024/01/19 08:44:44;;;;;;;;;;;0.20;99.90;;;;;;5041591;28;20016;-68
2024/01/19 08:47:09;;;;;;;;;;;0.20;99.90;;;;;;5038539;28;19921;-69
2024/01/19 08:49:35;;;;;;;;;;;0.30;99.90;;;;;;5045856;28;19966;-69
2024/01/19 08:52:00;;;;;;;;;;;0.30;99.90;;;;;;5038999;28;19924;-69
2024/01/19 08:54:27;;;;;;;;;;;0.30;99.90;;;;;;5044286;28;19920;-69
2024/01/19 08:56:54;;;;;;;;;;;0.40;99.90;;;;;;5038278;28;19920;-69
2024/01/19 08:59:19;;;;;;;;;;;0.40;99.90;;;;;;5054380;28;19938;-69
2024/01/19 09:01:46;;;;;;;;;;;0.50;99.90;;;;;;5037059;28;20399;-70
2024/01/19 09:04:11;;;;;;;;;;;0.50;99.90;;;;;;5038764;28;19921;-70
2024/01/19 09:06:37;;;;;;;;;;;0.50;99.90;;;;;;5040906;28;19928;-69
2024/01/19 09:09:09;;;;;;;;;;;-1.00;99.90;;;;;;5062275;28;19983;-69
2024/01/19 09:11:35;;;;;;;;;;;0.60;99.90;;;;;;5047228;28;19970;-71
2024/01/19 09:14:02;;;;;;;;;;;0.60;99.90;;;;;;5038252;28;19964;-69
2024/01/19 09:16:27;;;;;;;;;;;0.60;99.90;;;;;;5060829;28;19927;-71
2024/01/19 09:18:54;;;;;;;;;;;0.70;99.90;;;;;;5040636;28;19928;-70
2024/01/19 09:21:20;;;;;;;;;;;2.40;99.90;;;;;;5032762;28;20383;-70
2024/01/19 09:23:45;;;;;;;;;;;0.90;99.90;;;;;;5039921;28;19947;-68
2024/01/19 09:26:20;;;;;;;;;;;0.80;99.90;;;;;;5035466;28;19920;-69
2024/01/19 09:28:46;;;;;;;;;;;0.80;99.90;;;;;;5043143;28;19955;-70
2024/01/19 09:31:12;;;;;;;;;;;0.90;99.90;;;;;;5057925;28;20378;-70
2024/01/19 09:33:37;;;;;;;;;;;0.90;99.90;;;;;;5042120;28;19978;-69
2024/01/19 09:36:03;;;;;;;;;;;1.00;99.90;;;;;;5035270;28;19928;-71
2024/01/19 09:38:29;;;;;;;;;;;1.00;99.90;;;;;;5035323;28;20015;-71
2024/01/19 09:40:59;;;;;;;;;;;1.10;99.90;;;;;;5055549;28;20413;-70
2024/01/19 09:43:25;;;;;;;;;;;1.10;99.90;;;;;;5055471;28;20865;-70
2024/01/19 09:45:53;;;;;;;;;;;1.20;99.90;;;;;;5041151;28;19967;-72
2024/01/19 09:48:27;;;;;;;;;;;1.20;99.90;;;;;;5057773;28;19917;-71
2024/01/19 09:50:55;;;;;;;;;;;1.30;99.90;;;;;;5046232;28;19920;-76
2024/01/19 09:53:22;;;;;;;;;;;1.30;99.90;;;;;;5045709;28;20289;-75
2024/01/19 09:55:48;;;;;;;;;;;1.40;99.90;;;;;;5046883;28;19981;-72
2024/01/19 09:58:14;;;;;;;;;;;1.40;99.90;;;;;;5038834;28;20334;-72
2024/01/19 10:00:40;;;;;;;;;;;1.50;99.90;;;;;;5036192;28;20380;-70
2024/01/19 10:03:07;;;;;;;;;;;1.50;99.90;;;;;;5043939;28;19926;-69
2024/01/19 10:05:34;;;;;;;;;;;1.60;99.90;;;;;;5048580;28;19921;-70
2024/01/19 10:08:00;;;;;;;;;;;1.70;99.90;;;;;;5049840;28;19967;-68
2024/01/19 10:10:25;;;;;;;;;;;1.80;99.90;;;;;;5042832;28;19968;-70
2024/01/19 10:12:51;;;;;;;;;;;1.90;99.90;;;;;;5056478;28;19962;-70
2024/01/19 10:15:17;;;;;;;;;;;1.90;99.90;;;;;;5044038;28;19924;-68
2024/01/19 10:17:44;;;;;;;;;;;2.00;99.90;;;;;;5042115;28;19920;-69
2024/01/19 10:20:11;;;;;;;;;;;2.00;99.90;;;;;;5043788;28;20198;-69
2024/01/19 10:22:37;;;;;;;;;;;2.20;99.90;;;;;;5046516;28;20556;-69
2024/01/19 10:25:04;;;;;;;;;;;2.20;99.90;;;;;;5047589;28;20019;-70
2024/01/19 10:27:39;;;;;;;;;;;2.30;99.90;;;;;;5036505;28;20269;-70
2024/01/19 10:30:09;;;;;;;;;;;2.40;99.90;;;;;;5041835;28;19924;-69
2024/01/19 10:32:36;;;;;;;;;;;2.50;99.90;;;;;;5057575;28;19921;-70
2024/01/19 10:35:07;;;;;;;;;;;2.50;99.90;;;;;;5041495;28;21690;-70
2024/01/19 10:37:33;;;;;;;;;;;2.50;99.90;;;;;;5050763;28;20439;-69
2024/01/19 10:40:12;;;;;;;;;;;2.60;99.90;;;;;;5044941;28;20019;-71
2024/01/19 10:42:42;;;;;;;;;;;2.70;99.90;;;;;;5042363;28;19942;-69
2024/01/19 10:45:38;;;;;;;;;;;2.90;99.90;;;;;;5045979;28;19928;-69
2024/01/19 10:48:03;;;;;;;;;;;3.30;99.90;;;;;;5035255;28;21638;-70
2024/01/19 10:50:30;;;;;;;;;;;3.70;99.90;;;;;;5043742;28;19920;-71
2024/01/19 10:52:56;;;;;;;;;;;4.00;99.90;;;;;;5042731;28;20283;-72
2024/01/19 10:55:26;;;;;;;;;;;4.40;99.90;;;;;;5048968;28;19928;-73
2024/01/19 10:57:56;;;;;;;;;;;4.70;99.90;;;;;;5042127;28;19920;-72
2024/01/19 11:00:22;;;;;;;;;;;5.20;99.90;;;;;;5048449;28;19974;-70
2024/01/19 11:02:49;;;;;;;;;;;6.00;99.90;;;;;;5037002;28;20003;-71
2024/01/19 11:05:21;;;;;;;;;;;6.80;99.90;;;;;;5049419;28;20271;-70
2024/01/19 11:07:59;;;;;;;;;;;7.60;99.90;;;;;;5050831;28;19947;-70
2024/01/19 11:10:26;;;;;;;;;;;8.60;99.90;;;;;;5045046;28;19970;-70
2024/01/19 11:12:56;;;;;;;;;;;9.60;99.90;;;;;;5065687;28;20469;-70
2024/01/19 11:15:34;;;;;;;;;;;10.60;99.90;;;;;;5040755;28;19931;-73
2024/01/19 11:18:00;;;;;;;;;;;11.60;99.90;;;;;;5064196;28;20014;-72
2024/01/19 11:20:28;;;;;;;;;;;12.40;99.90;;;;;;5063699;28;19921;-72
2024/01/19 11:22:54;;;;;;;;;;;13.20;99.90;;;;;;5063747;28;20017;-73
2024/01/19 11:25:42;;;;;;;;;;;13.50;99.90;;;;;;5045843;28;19966;-72
2024/01/19 11:28:18;;;;;;;;;;;13.30;99.90;;;;;;5044374;28;19920;-71
2024/01/19 11:30:44;;;;;;;;;;;12.20;99.90;;;;;;5046709;28;20453;-73
2024/01/19 11:33:19;;;;;;;;;;;10.90;99.90;;;;;;5051133;28;19931;-71
2024/01/19 11:35:48;;;;;;;;;;;9.70;99.40;;;;;;5060777;28;20335;-70
2024/01/19 11:38:33;;;;;;;;;;;9.30;99.90;;;;;;5047556;28;19980;-70
2024/01/19 11:40:58;;;;;;;;;;;8.00;99.90;;;;;;5064138;28;20252;-71
2024/01/19 11:43:40;;;;;;;;;;;7.30;99.90;;;;;;5059242;28;19927;-70
2024/01/19 11:46:09;;;;;;;;;;;6.60;99.90;;;;;;5050321;28;19994;-70
2024/01/19 11:48:39;;;;;;;;;;;6.30;99.90;;;;;;5059719;28;19921;-70
2024/01/19 11:51:05;;;;;;;;;;;6.00;99.90;;;;;;5046226;28;20372;-69
2024/01/19 11:53:49;;;;;;;;;;;5.80;99.90;;;;;;5059687;28;19966;-70
2024/01/19 11:56:20;;;;;;;;;;;5.60;99.90;;;;;;5047300;28;20371;-70
2024/01/19 11:58:46;;;;;;;;;;;5.40;99.90;;;;;;5057254;28;19970;-70
2024/01/19 12:01:12;;;;;;;;;;;5.40;99.90;;;;;;5059560;28;19956;-70
2024/01/19 12:03:38;;;;;;;;;;;5.30;99.90;;;;;;5045751;28;20687;-71
2024/01/19 12:06:05;;;;;;;;;;;5.40;99.90;;;;;;5045542;28;19951;-71
2024/01/19 12:08:31;;;;;;;;;;;5.60;99.90;;;;;;5066471;28;19981;-71
2024/01/19 12:11:01;;;;;;;;;;;6.20;99.90;;;;;;5050338;28;19924;-71
2024/01/19 12:13:26;;;;;;;;;;;7.10;99.90;;;;;;5046560;28;20402;-71
2024/01/19 12:15:52;;;;;;;;;;;8.20;99.90;;;;;;5066622;28;19924;-72
2024/01/19 12:18:17;;;;;;;;;;;9.30;99.90;;;;;;5062971;28;19928;-71
2024/01/19 12:20:45;;;;;;;;;;;10.40;99.90;;;;;;5048811;28;19927;-71
2024/01/19 12:23:13;;;;;;;;;;;11.30;99.90;;;;;;5042911;28;19924;-73
2024/01/19 12:25:39;;;;;;;;;;;12.20;99.90;;;;;;5038226;28;20295;-72
2024/01/19 12:28:06;;;;;;;;;;;12.80;99.50;;;;;;5038571;28;20002;-71
2024/01/19 12:30:32;;;;;;;;;;;13.00;98.80;;;;;;5044984;28;20001;-71
2024/01/19 12:32:58;;;;;;;;;;;12.60;97.90;;;;;;5065986;28;19925;-71
2024/01/19 12:35:23;;;;;;;;;;;11.90;96.50;;;;;;5047969;28;19936;-71
2024/01/19 12:37:49;;;;;;;;;;;11.20;96.50;;;;;;5049758;28;19932;-71
2024/01/19 12:40:16;;;;;;;;;;;10.80;97.10;;;;;;5031532;28;19921;-72
2024/01/19 12:42:41;;;;;;;;;;;10.90;98.10;;;;;;5046195;28;19928;-71
2024/01/19 12:45:07;;;;;;;;;;;10.90;98.20;;;;;;5063879;28;20031;-71
2024/01/19 12:47:33;;;;;;;;;;;11.00;99.60;;;;;;5039056;28;19975;-71
2024/01/19 12:49:59;;;;;;;;;;;11.60;98.90;;;;;;5048280;28;19974;-73
2024/01/19 12:52:24;;;;;;;;;;;12.30;97.30;;;;;;5047667;28;20287;-71
2024/01/19 12:54:50;;;;;;;;;;;12.60;96.90;;;;;;5040416;28;20288;-71
2024/01/19 12:57:19;;;;;;;;;;;12.80;96.90;;;;;;5062896;28;19921;-71
2024/01/19 12:59:45;;;;;;;;;;;13.20;97.20;;;;;;5038793;28;19931;-71
2024/01/19 13:02:11;;;;;;;;;;;13.90;97.80;;;;;;5064475;28;19942;-71
2024/01/19 13:04:37;;;;;;;;;;;14.10;96.90;;;;;;5067389;28;19935;-71
2024/01/19 13:07:03;;;;;;;;;;;13.30;94.70;;;;;;5068864;28;19920;-71
2024/01/19 13:09:28;;;;;;;;;;;12.10;93.00;;;;;;5066847;28;19916;-71
2024/01/19 13:12:08;;;;;;;;;;;11.00;93.20;;;;;;5065195;28;19937;-71
2024/01/19 13:14:34;;;;;;;;;;;10.00;96.20;;;;;;5041158;28;19927;-73
2024/01/19 13:17:03;;;;;;;;;;;8.70;94.00;;;;;;5062251;28;19924;-71
2024/01/19 13:19:42;;;;;;;;;;;7.60;95.40;;;;;;5067121;28;19920;-70
2024/01/19 13:22:07;;;;;;;;;;;7.50;95.50;;;;;;5040805;28;19924;-71
2024/01/19 13:24:33;;;;;;;;;;;7.10;96.40;;;;;;5054997;28;20015;-70
2024/01/19 13:26:59;;;;;;;;;;;6.80;96.70;;;;;;5046964;28;20360;-70
2024/01/19 13:29:25;;;;;;;;;;;6.40;97.30;;;;;;5059208;28;20727;-68
2024/01/19 13:31:51;;;;;;;;;;;;;;;;;;5043884;28;19920;-70
2024/01/19 13:34:17;;;;;;;;;;;;;;;;;;5045132;28;19928;-70
2024/01/19 13:36:43;;;;;;;;;;;;;;;;;;5047041;28;19952;-70
2024/01/19 13:39:09;;;;;;;;;;;6.00;98.80;;;;;;5042870;28;20272;-72
2024/01/19 13:41:34;;;;;;;;;;;5.40;99.10;;;;;;5049403;28;19926;-70
2024/01/19 13:44:00;;;;;;;;;;;5.30;99.30;;;;;;5060492;28;20132;-70
2024/01/19 13:46:26;;;;;;;;;;;5.20;99.80;;;;;;5046730;28;20015;-70
2024/01/19 13:48:51;;;;;;;;;;;5.00;99.90;;;;;;5051165;28;19920;-70
2024/01/19 13:51:17;;;;;;;;;;;5.00;99.90;;;;;;5060907;28;20281;-70
2024/01/19 13:53:45;;;;;;;;;;;4.90;99.90;;;;;;5061883;28;19920;-70
2024/01/19 13:56:10;;;;;;;;;;;4.80;99.90;;;;;;5047950;28;19939;-70
2024/01/19 13:58:36;;;;;;;;;;;4.80;99.90;;;;;;5048321;28;20411;-69
2024/01/19 14:01:03;;;;;;;;;;;4.70;99.90;;;;;;5042661;28;19924;-70
2024/01/19 14:03:28;;;;;;;;;;;4.70;99.90;;;;;;5052834;28;19970;-70
2024/01/19 14:05:54;;;;;;;;;;;4.60;99.90;;;;;;5065508;28;19956;-70
2024/01/19 14:08:19;;;;;;;;;;;4.60;99.90;;;;;;5047998;28;20297;-71
2024/01/19 14:10:46;;;;;;;;;;;4.50;99.90;;;;;;5043853;28;20350;-70
2024/01/19 14:13:12;;;;;;;;;;;4.50;99.90;;;;;;5046791;28;19920;-70
2024/01/19 14:15:39;;;;;;;;;;;4.50;99.90;;;;;;5040663;28;20330;-70
2024/01/19 14:18:05;;;;;;;;;;;4.40;99.90;;;;;;5069063;28;19932;-70
2024/01/19 14:20:30;;;;;;;;;;;4.40;99.90;;;;;;5049126;28;19935;-69
2024/01/19 14:22:56;;;;;;;;;;;4.40;99.90;;;;;;5046670;28;19921;-73
2024/01/19 14:25:21;;;;;;;;;;;4.40;99.90;;;;;;5050373;28;19936;-71